Time;durP1;ratioP1;P1;durP2;ratioP2;P2;SDS_P1;SDS_P2;PMS_P1;PMS_P2;Temp;Humidity;BMP_temperature;BMP_pressure;BME280_temperature;BME280_humidity;BME280_pressure;Samples;Min_cycle;Max_cycle;Signal;HPM_P1;HPM_P2
2021/05/02 00:01:06;;;;;;;1999.90;999.90;;;6.70;99.90;;;;;;4974997;28;20055;-95
2021/05/02 00:03:43;;;;;;;1999.90;999.90;;;6.70;99.90;;;;;;4986491;28;20106;-96
2021/05/02 00:06:13;;;;;;;1999.90;999.90;;;6.70;99.90;;;;;;4991441;28;20055;-96
2021/05/02 00:08:48;;;;;;;1999.90;999.90;;;6.70;99.90;;;;;;4994346;28;20064;-95
2021/05/02 00:11:16;;;;;;;1999.90;999.90;;;6.70;99.90;;;;;;4986435;28;20061;-94
2021/05/02 00:13:43;;;;;;;1999.90;999.90;;;6.70;99.90;;;;;;4978306;28;20078;-95
2021/05/02 00:16:10;;;;;;;1999.90;999.90;;;6.60;99.90;;;;;;4978552;28;20074;-93
2021/05/02 00:18:38;;;;;;;1999.90;999.90;;;6.70;99.90;;;;;;4978810;28;20114;-93
2021/05/02 00:21:08;;;;;;;1999.90;999.90;;;6.70;99.90;;;;;;5007173;28;20054;-94
2021/05/02 00:23:36;;;;;;;1999.90;999.90;;;6.70;99.90;;;;;;5017379;28;20049;-94
2021/05/02 00:26:05;;;;;;;1999.90;999.90;;;6.60;99.90;;;;;;5017423;28;20054;-94
2021/05/02 00:28:34;;;;;;;1999.90;999.90;;;6.60;99.90;;;;;;5017558;28;20108;-94
2021/05/02 00:31:05;;;;;;;1999.90;999.90;;;6.70;99.90;;;;;;5017764;28;20393;-94
2021/05/02 00:33:32;;;;;;;1999.90;999.90;;;6.70;99.90;;;;;;5017394;28;20104;-94
2021/05/02 00:36:00;;;;;;;1999.90;999.90;;;6.70;99.90;;;;;;5017529;28;20108;-94
2021/05/02 00:38:27;;;;;;;1999.90;999.90;;;6.60;99.90;;;;;;5017043;28;20054;-94
2021/05/02 00:40:57;;;;;;;1999.90;999.90;;;6.60;99.90;;;;;;5017100;28;20050;-94
2021/05/02 00:43:37;;;;;;;1999.90;999.90;;;6.60;99.90;;;;;;5017785;28;20081;-94
2021/05/02 00:46:11;;;;;;;1999.90;999.90;;;6.70;99.90;;;;;;5017518;28;20137;-94
2021/05/02 00:48:46;;;;;;;1999.90;999.90;;;6.60;99.90;;;;;;5017359;28;20125;-94
2021/05/02 00:51:16;;;;;;;1999.90;999.90;;;6.60;99.90;;;;;;5017180;28;20200;-94
2021/05/02 00:53:50;;;;;;;1999.90;999.90;;;6.60;99.90;;;;;;5017689;28;20153;-94
2021/05/02 00:56:22;;;;;;;1999.90;999.90;;;6.50;99.90;;;;;;5018743;28;20046;-94
2021/05/02 00:58:55;;;;;;;1999.90;999.90;;;6.50;99.90;;;;;;5017606;28;20060;-94
2021/05/02 01:01:24;;;;;;;1999.90;999.90;;;6.50;99.90;;;;;;5016917;28;20564;-94
2021/05/02 01:03:52;;;;;;;1999.90;999.90;;;6.50;99.90;;;;;;5016626;28;20145;-94
2021/05/02 01:06:24;;;;;;;1999.90;999.90;;;6.40;99.90;;;;;;5017179;28;20058;-96
2021/05/02 01:08:53;;;;;;;1999.90;999.90;;;6.40;99.90;;;;;;5017958;28;20472;-96
2021/05/02 01:11:20;;;;;;;1999.90;999.90;;;6.40;99.90;;;;;;5019180;28;20049;-95
2021/05/02 01:13:55;;;;;;;1999.90;999.90;;;6.40;99.90;;;;;;5019062;28;20053;-95
2021/05/02 01:16:25;;;;;;;1999.90;999.90;;;6.30;99.90;;;;;;5018577;28;20527;-95
2021/05/02 01:18:54;;;;;;;1999.90;999.90;;;6.30;99.90;;;;;;5019415;28;20370;-96
2021/05/02 01:21:31;;;;;;;1999.90;999.90;;;6.30;99.90;;;;;;5018430;28;20085;-96
2021/05/02 01:24:01;;;;;;;1999.90;999.90;;;6.30;99.90;;;;;;5018362;28;20058;-96
2021/05/02 01:26:28;;;;;;;1999.90;999.90;;;6.30;99.90;;;;;;5018527;28;20088;-96
2021/05/02 01:28:58;;;;;;;1999.90;999.90;;;6.30;99.90;;;;;;5018650;28;20054;-96
2021/05/02 01:31:27;;;;;;;1999.90;999.90;;;6.40;99.90;;;;;;5019468;28;20108;-96
2021/05/02 01:33:56;;;;;;;1999.90;999.90;;;6.30;99.90;;;;;;5018998;28;20072;-95
2021/05/02 01:36:23;;;;;;;1999.90;999.90;;;6.30;99.90;;;;;;5017532;28;20053;-96
2021/05/02 01:38:53;;;;;;;1999.90;999.90;;;6.30;99.90;;;;;;5017703;28;20100;-96
2021/05/02 01:41:21;;;;;;;1999.90;999.90;;;6.30;99.90;;;;;;5017174;28;20058;-95
2021/05/02 01:43:48;;;;;;;1999.90;999.90;;;6.30;99.90;;;;;;5021126;28;20089;-95
2021/05/02 01:46:20;;;;;;;1999.90;999.90;;;6.30;99.90;;;;;;5022026;28;20060;-96
2021/05/02 01:48:47;;;;;;;1999.90;999.90;;;6.20;99.90;;;;;;5022253;28;20073;-96
2021/05/02 01:51:15;;;;;;;1999.90;999.90;;;6.20;99.90;;;;;;5022017;28;20109;-95
2021/05/02 01:53:43;;;;;;;1999.90;999.90;;;6.20;99.90;;;;;;5020810;28;20054;-96
2021/05/02 01:56:15;;;;;;;1999.90;999.90;;;6.20;99.90;;;;;;5020048;28;20061;-95
2021/05/02 01:58:44;;;;;;;1999.90;999.90;;;6.20;99.90;;;;;;5019807;28;20116;-95
2021/05/02 02:01:15;;;;;;;1999.90;999.90;;;6.10;99.90;;;;;;5019452;28;20469;-95
2021/05/02 02:03:44;;;;;;;1999.90;999.90;;;6.10;99.90;;;;;;5019448;28;20056;-96
2021/05/02 02:06:14;;;;;;;1999.90;999.90;;;6.10;99.90;;;;;;5019046;28;20061;-96
2021/05/02 02:08:41;;;;;;;1999.90;999.90;;;6.00;99.90;;;;;;5018709;28;20053;-96
2021/05/02 02:11:10;;;;;;;1999.90;999.90;;;6.00;99.90;;;;;;5018469;28;20057;-96
2021/05/02 02:13:38;;;;;;;1999.90;999.90;;;6.00;99.90;;;;;;5020244;28;20115;-96
2021/05/02 02:16:07;;;;;;;1999.90;999.90;;;6.00;99.90;;;;;;5018886;28;20056;-96
2021/05/02 02:18:35;;;;;;;1999.90;999.90;;;6.00;99.90;;;;;;5019092;28;20064;-94
2021/05/02 02:21:03;;;;;;;1999.90;999.90;;;6.00;99.90;;;;;;5015394;28;20054;-94
2021/05/02 02:23:32;;;;;;;1999.90;999.90;;;6.00;99.90;;;;;;5015067;28;20053;-93
2021/05/02 02:26:11;;;;;;;1999.90;999.90;;;6.10;99.90;;;;;;5002991;28;20051;-93
2021/05/02 02:28:38;;;;;;;1999.90;999.90;;;6.00;99.90;;;;;;4996320;28;20117;-94
2021/05/02 02:31:09;;;;;;;1999.90;999.90;;;6.10;99.90;;;;;;4995494;28;20093;-94
2021/05/02 02:33:39;;;;;;;1999.90;999.90;;;6.10;99.90;;;;;;4995470;28;20050;-94
2021/05/02 02:36:07;;;;;;;1999.90;999.90;;;6.10;99.90;;;;;;4995452;28;20400;-95
2021/05/02 02:38:36;;;;;;;1999.90;999.90;;;6.00;99.90;;;;;;4995266;28;20101;-93
2021/05/02 02:41:05;;;;;;;1999.90;999.90;;;6.00;99.90;;;;;;4996099;28;20046;-94
2021/05/02 02:43:34;;;;;;;1999.90;999.90;;;6.10;99.90;;;;;;4995314;28;20500;-93
2021/05/02 02:46:05;;;;;;;1999.90;999.90;;;6.10;99.90;;;;;;4995774;28;20081;-95
2021/05/02 02:48:35;;;;;;;1999.90;999.90;;;6.10;99.90;;;;;;4995904;28;20054;-94
2021/05/02 02:51:04;;;;;;;1999.90;999.90;;;6.10;99.90;;;;;;4994941;28;20050;-94
2021/05/02 02:53:33;;;;;;;1999.90;999.90;;;6.10;99.90;;;;;;4995639;28;20105;-94
2021/05/02 02:56:05;;;;;;;1999.90;999.90;;;6.10;99.90;;;;;;4995170;28;20051;-93
2021/05/02 02:58:35;;;;;;;1999.90;999.90;;;6.10;99.90;;;;;;4995103;28;20078;-94
2021/05/02 03:01:05;;;;;;;1999.90;999.90;;;6.10;99.90;;;;;;4995258;28;20205;-94
2021/05/02 03:03:35;;;;;;;1999.90;999.90;;;6.10;99.90;;;;;;4995512;28;20178;-94
2021/05/02 03:06:03;;;;;;;1999.90;999.90;;;6.10;99.90;;;;;;4995171;28;20082;-93
2021/05/02 03:08:56;;;;;;;1999.90;999.90;;;6.10;99.90;;;;;;4994726;28;20549;-94
2021/05/02 03:11:37;;;;;;;1999.90;999.90;;;6.10;99.90;;;;;;4993700;28;20070;-94
2021/05/02 03:14:05;;;;;;;1999.90;999.90;;;6.10;99.90;;;;;;4995276;28;20058;-94
2021/05/02 03:16:35;;;;;;;1999.90;999.90;;;6.10;99.90;;;;;;4996130;28;20085;-93
2021/05/02 03:19:12;;;;;;;1999.90;999.90;;;6.10;99.90;;;;;;4995568;28;20052;-95
2021/05/02 03:21:47;;;;;;;1999.90;999.90;;;6.10;99.90;;;;;;4995222;28;20058;-94
2021/05/02 03:24:20;;;;;;;1999.90;999.90;;;6.00;99.90;;;;;;4995459;28;20050;-95
2021/05/02 03:26:49;;;;;;;1999.90;999.90;;;6.00;99.90;;;;;;4995931;28;20113;-95
2021/05/02 03:29:18;;;;;;;1999.90;999.90;;;6.00;99.90;;;;;;4994991;28;20058;-96
2021/05/02 03:31:51;;;;;;;1999.90;999.90;;;6.00;99.90;;;;;;4995617;28;20460;-95
2021/05/02 03:34:23;;;;;;;1999.90;999.90;;;6.00;99.90;;;;;;4995477;28;20077;-95
2021/05/02 03:36:52;;;;;;;1999.90;999.90;;;6.00;99.90;;;;;;4995362;28;20141;-95
2021/05/02 03:39:20;;;;;;;1999.90;999.90;;;6.00;99.90;;;;;;4997068;28;20465;-95
2021/05/02 03:41:47;;;;;;;1999.90;999.90;;;6.00;99.90;;;;;;4998705;28;20054;-96
2021/05/02 03:44:14;;;;;;;1999.90;999.90;;;6.00;99.90;;;;;;4999225;28;20054;-95
2021/05/02 03:46:42;;;;;;;1999.90;999.90;;;6.10;99.90;;;;;;4999621;28;20401;-96
2021/05/02 03:49:10;;;;;;;1999.90;999.90;;;6.00;99.90;;;;;;4999041;28;20128;-96
2021/05/02 03:51:40;;;;;;;1999.90;999.90;;;6.00;99.90;;;;;;5000132;28;20105;-95
2021/05/02 03:54:07;;;;;;;1999.90;999.90;;;6.00;99.90;;;;;;5000209;28;20058;-96
2021/05/02 03:56:39;;;;;;;1999.90;999.90;;;6.00;99.90;;;;;;4999033;28;20463;-95
2021/05/02 03:59:10;;;;;;;1999.90;999.90;;;6.00;99.90;;;;;;4998804;28;20104;-95
2021/05/02 04:01:41;;;;;;;1999.90;999.90;;;6.00;99.90;;;;;;4999247;28;20054;-95
2021/05/02 04:04:12;;;;;;;1999.90;999.90;;;6.00;99.90;;;;;;5000013;28;20510;-96
2021/05/02 04:06:41;;;;;;;1999.90;999.90;;;6.00;99.90;;;;;;5001824;28;20113;-95
2021/05/02 04:09:11;;;;;;;1999.90;999.90;;;5.90;99.90;;;;;;5000697;28;20412;-96
2021/05/02 04:11:40;;;;;;;1999.90;999.90;;;6.00;99.90;;;;;;4999579;28;20066;-94
2021/05/02 04:14:09;;;;;;;1999.90;999.90;;;6.00;99.90;;;;;;4999254;28;20505;-95
2021/05/02 04:16:37;;;;;;;1999.90;999.90;;;6.00;99.90;;;;;;4999090;28;20055;-96
2021/05/02 04:19:06;;;;;;;1999.90;999.90;;;5.90;99.90;;;;;;5012145;28;20058;-95
2021/05/02 04:21:35;;;;;;;1999.90;999.90;;;5.90;99.90;;;;;;5017869;28;20034;-95
2021/05/02 04:24:05;;;;;;;1999.90;999.90;;;5.90;99.90;;;;;;5019311;28;20110;-96
2021/05/02 04:26:37;;;;;;;1999.90;999.90;;;5.80;99.90;;;;;;5013717;28;20062;-95
2021/05/02 04:29:08;;;;;;;1999.90;999.90;;;5.90;99.90;;;;;;5000543;28;20098;-95
2021/05/02 04:31:40;;;;;;;1999.90;999.90;;;5.80;99.90;;;;;;5001095;28;20049;-95
2021/05/02 04:34:08;;;;;;;1999.90;999.90;;;5.80;99.90;;;;;;5000643;28;20035;-96
2021/05/02 04:36:36;;;;;;;1999.90;999.90;;;5.80;99.90;;;;;;4999507;28;20066;-95
2021/05/02 04:39:06;;;;;;;1999.90;999.90;;;5.80;99.90;;;;;;5000236;28;20034;-95
2021/05/02 04:41:34;;;;;;;1999.90;999.90;;;5.80;99.90;;;;;;4999849;28;20115;-95
2021/05/02 04:44:07;;;;;;;1999.90;999.90;;;5.80;99.90;;;;;;5000641;28;20042;-96
2021/05/02 04:46:35;;;;;;;1999.90;999.90;;;5.80;99.90;;;;;;4998293;28;20054;-94
2021/05/02 04:49:03;;;;;;;1999.90;999.90;;;5.80;99.90;;;;;;4998028;28;20430;-95
2021/05/02 04:51:30;;;;;;;1999.90;999.90;;;5.80;99.90;;;;;;4996448;28;20057;-94
2021/05/02 04:53:58;;;;;;;1999.90;999.90;;;5.80;99.90;;;;;;4989481;28;20062;-96
2021/05/02 04:56:26;;;;;;;1999.90;999.90;;;5.80;99.90;;;;;;4987211;28;20047;-94
2021/05/02 04:58:54;;;;;;;1999.90;999.90;;;5.80;99.90;;;;;;4998410;28;20050;-95
2021/05/02 05:01:22;;;;;;;1999.90;999.90;;;5.80;99.90;;;;;;4999130;28;20050;-94
2021/05/02 05:03:50;;;;;;;1999.90;999.90;;;5.90;99.90;;;;;;4998614;28;20062;-95
2021/05/02 05:06:17;;;;;;;1999.90;999.90;;;5.90;99.90;;;;;;4999270;28;20039;-95
2021/05/02 05:08:45;;;;;;;1999.90;999.90;;;5.90;99.90;;;;;;4997959;28;20030;-96
2021/05/02 05:11:12;;;;;;;1999.90;999.90;;;5.90;99.90;;;;;;4997249;28;20058;-95
2021/05/02 05:13:41;;;;;;;1999.90;999.90;;;5.90;99.90;;;;;;4999317;28;20081;-96
2021/05/02 05:16:08;;;;;;;1999.90;999.90;;;5.90;99.90;;;;;;4999997;28;20046;-96
2021/05/02 05:18:35;;;;;;;1999.90;999.90;;;5.90;99.90;;;;;;4997601;28;20552;-95
2021/05/02 05:21:03;;;;;;;1999.90;999.90;;;5.90;99.90;;;;;;4989188;28;20043;-95
2021/05/02 05:23:30;;;;;;;1999.90;999.90;;;5.90;99.90;;;;;;4982414;28;20066;-95
2021/05/02 05:25:58;;;;;;;1999.90;999.90;;;6.00;99.90;;;;;;4983766;28;20054;-96
2021/05/02 05:28:25;;;;;;;1999.90;999.90;;;6.00;99.90;;;;;;4982652;28;20520;-95
2021/05/02 05:30:55;;;;;;;1999.90;999.90;;;5.90;99.90;;;;;;4981487;28;20092;-95
2021/05/02 05:33:28;;;;;;;1999.90;999.90;;;6.00;99.90;;;;;;4980875;28;20066;-96
2021/05/02 05:35:55;;;;;;;1999.90;999.90;;;6.00;99.90;;;;;;4980042;28;20074;-96
2021/05/02 05:38:23;;;;;;;1999.90;999.90;;;6.00;99.90;;;;;;4980133;28;20050;-96
2021/05/02 05:40:50;;;;;;;1999.90;999.90;;;6.10;99.90;;;;;;4980251;28;20061;-95
2021/05/02 05:43:18;;;;;;;1999.90;999.90;;;6.10;99.90;;;;;;4981303;28;20054;-95
2021/05/02 05:45:45;;;;;;;1999.90;999.90;;;6.20;99.90;;;;;;4978980;28;20054;-95
2021/05/02 05:48:13;;;;;;;1999.90;999.90;;;6.20;99.90;;;;;;4977954;28;20050;-95
2021/05/02 05:50:45;;;;;;;1999.90;999.90;;;6.30;99.90;;;;;;4978450;28;20055;-95
2021/05/02 05:53:12;;;;;;;1999.90;999.90;;;6.40;99.90;;;;;;4979126;28;20470;-95
2021/05/02 05:55:40;;;;;;;1999.90;999.90;;;6.50;99.90;;;;;;4978832;28;20058;-96
2021/05/02 05:58:07;;;;;;;1999.90;999.90;;;6.50;99.90;;;;;;4979134;28;20058;-96
2021/05/02 06:00:34;;;;;;;1999.90;999.90;;;6.50;99.90;;;;;;4979645;28;20043;-95
2021/05/02 06:03:02;;;;;;;1999.90;999.90;;;6.70;99.90;;;;;;4979130;28;20489;-96
2021/05/02 06:05:30;;;;;;;1999.90;999.90;;;6.70;99.90;;;;;;4979618;28;20062;-96
2021/05/02 06:07:57;;;;;;;1999.90;999.90;;;6.80;99.90;;;;;;4979678;28;20078;-96
2021/05/02 06:10:25;;;;;;;1999.90;999.90;;;6.70;99.90;;;;;;4980702;28;20043;-96
2021/05/02 06:12:54;;;;;;;1999.90;999.90;;;6.80;99.90;;;;;;4978596;28;20460;-95
2021/05/02 06:15:26;;;;;;;1999.90;999.90;;;6.70;99.90;;;;;;4980757;28;20493;-95
2021/05/02 06:18:00;;;;;;;1999.90;999.90;;;6.70;99.90;;;;;;4994411;28;20054;-95
2021/05/02 08:05:36;;;;;;;1999.90;999.90;;;8.80;99.90;;;;;;5474216;23;20057;-94
2021/05/02 08:08:05;;;;;;;1999.90;999.90;;;9.00;99.90;;;;;;4979239;28;20055;-93
2021/05/02 08:10:32;;;;;;;1999.90;999.90;;;9.10;99.80;;;;;;4979000;28;20055;-92
2021/05/02 08:13:00;;;;;;;1999.90;999.90;;;9.10;99.00;;;;;;4960923;28;20051;-93
2021/05/02 08:15:28;;;;;;;1999.90;999.90;;;9.00;98.70;;;;;;4972044;28;20551;-94
2021/05/02 08:17:56;;;;;;;1999.90;999.90;;;8.90;99.40;;;;;;4978582;28;20054;-93
2021/05/02 08:20:25;;;;;;;1999.90;999.90;;;8.80;99.70;;;;;;4968641;28;20055;-94
2021/05/02 08:22:52;;;;;;;1999.90;999.90;;;8.80;99.90;;;;;;4961853;28;20062;-94
2021/05/02 08:25:20;;;;;;;1999.90;999.90;;;8.60;99.90;;;;;;4978515;28;20054;-93
2021/05/02 08:27:51;;;;;;;1999.90;999.90;;;8.50;99.90;;;;;;4978333;28;20397;-93
2021/05/02 08:30:19;;;;;;;1999.90;999.90;;;8.30;99.90;;;;;;4970907;28;20375;-94
2021/05/02 08:32:46;;;;;;;1999.90;999.90;;;8.10;99.90;;;;;;4974145;28;20066;-92
2021/05/02 08:35:14;;;;;;;1999.90;999.90;;;7.90;99.90;;;;;;4960937;28;20051;-93
2021/05/02 08:37:41;;;;;;;1999.90;999.90;;;7.80;99.90;;;;;;4978059;28;20058;-93
2021/05/02 08:40:10;;;;;;;1999.90;999.90;;;7.90;99.90;;;;;;4977946;28;20510;-93
2021/05/02 08:42:38;;;;;;;1999.90;999.90;;;7.90;99.90;;;;;;4977827;28;20398;-92
2021/05/02 08:45:09;;;;;;;1999.90;999.90;;;8.10;99.90;;;;;;4978217;28;20051;-94
2021/05/02 08:47:38;;;;;;;1999.90;999.90;;;8.10;99.90;;;;;;4977881;28;20061;-93
2021/05/02 08:50:08;;;;;;;1999.90;999.90;;;8.10;99.90;;;;;;4978319;28;20063;-94
2021/05/02 08:52:44;;;;;;;1999.90;999.90;;;8.10;99.90;;;;;;4977123;28;20043;-93
2021/05/02 08:55:12;;;;;;;1999.90;999.90;;;8.20;99.90;;;;;;4977916;28;20106;-94
2021/05/02 08:57:39;;;;;;;1999.90;999.90;;;8.20;99.90;;;;;;4971731;28;20051;-95
2021/05/02 09:00:08;;;;;;;1999.90;999.90;;;8.30;99.90;;;;;;4959176;29;20043;-95
2021/05/02 09:02:37;;;;;;;1999.90;999.90;;;8.60;99.90;;;;;;4958320;29;20055;-94
2021/05/02 09:05:06;;;;;;;1999.90;999.90;;;8.70;99.90;;;;;;4976181;28;20062;-94
2021/05/02 09:07:51;;;;;;;1999.90;999.90;;;8.70;99.90;;;;;;4977553;28;20050;-94
2021/05/02 09:10:20;;;;;;;1999.90;999.90;;;8.90;99.90;;;;;;4977739;28;20548;-94
2021/05/02 09:12:59;;;;;;;1999.90;999.90;;;9.00;99.90;;;;;;4977577;28;20054;-94
2021/05/02 09:15:30;;;;;;;1999.90;999.90;;;9.00;99.90;;;;;;4978526;28;20078;-95
2021/05/02 09:18:02;;;;;;;1999.90;999.90;;;9.00;99.90;;;;;;4966727;28;20061;-94
2021/05/02 09:20:49;;;;;;;1999.90;999.90;;;9.10;99.90;;;;;;4977543;28;20050;-94
2021/05/02 09:23:18;;;;;;;1999.90;999.90;;;9.20;99.90;;;;;;4963592;28;20109;-94
2021/05/02 09:25:50;;;;;;;1999.90;999.90;;;9.20;99.40;;;;;;4966156;28;20055;-94
2021/05/02 09:28:19;;;;;;;1999.90;999.90;;;9.20;99.90;;;;;;4962247;28;20066;-94
2021/05/02 09:31:05;;;;;;;1999.90;999.90;;;9.30;99.80;;;;;;4976901;28;20149;-93
2021/05/02 09:33:35;;;;;;;1999.90;999.90;;;9.20;99.90;;;;;;4977152;28;20485;-92
2021/05/02 09:36:02;;;;;;;1999.90;999.90;;;9.30;99.90;;;;;;4976766;28;20065;-93
2021/05/02 09:38:30;;;;;;;1999.90;999.90;;;9.30;99.90;;;;;;4977015;28;20501;-94
2021/05/02 09:41:01;;;;;;;1999.90;999.90;;;9.30;99.90;;;;;;4967772;28;20073;-92
2021/05/02 09:43:37;;;;;;;1999.90;999.90;;;9.20;99.90;;;;;;4977026;28;20047;-93
2021/05/02 09:46:28;;;;;;;1999.90;999.90;;;9.20;99.90;;;;;;4976804;28;20058;-93
2021/05/02 09:49:11;;;;;;;1999.90;999.90;;;9.30;99.90;;;;;;4957651;29;20070;-94
2021/05/02 09:51:43;;;;;;;1999.90;999.90;;;9.40;99.90;;;;;;4975650;28;20533;-95
2021/05/02 09:54:12;;;;;;;1999.90;999.90;;;9.50;99.90;;;;;;4966496;28;20094;-93
2021/05/02 09:56:43;;;;;;;1999.90;999.90;;;9.70;99.90;;;;;;4970339;28;20051;-93
2021/05/02 09:59:29;;;;;;;1999.90;999.90;;;9.80;99.90;;;;;;4976575;28;20136;-93
2021/05/02 10:02:22;;;;;;;1999.90;999.90;;;9.90;99.70;;;;;;4959076;28;20443;-94
2021/05/02 10:04:55;;;;;;;1999.90;999.90;;;9.90;99.70;;;;;;4974999;28;20055;-95
2021/05/02 10:07:24;;;;;;;1999.90;999.90;;;9.90;99.80;;;;;;4978421;28;20081;-93
2021/05/02 10:09:53;;;;;;;1999.90;999.90;;;9.90;99.90;;;;;;4976375;28;20054;-93
2021/05/02 10:12:21;;;;;;;1999.90;999.90;;;9.90;99.90;;;;;;4976517;28;20047;-94
2021/05/02 10:14:50;;;;;;;1999.90;999.90;;;10.00;99.90;;;;;;4974911;28;20055;-94
2021/05/02 10:17:18;;;;;;;1999.90;999.90;;;10.10;99.90;;;;;;4976353;28;20145;-93
2021/05/02 10:19:45;;;;;;;1999.90;999.90;;;10.00;99.40;;;;;;4976954;28;20074;-93
2021/05/02 10:22:17;;;;;;;1999.90;999.90;;;10.00;99.50;;;;;;4965785;28;20050;-96
2021/05/02 10:24:45;;;;;;;1999.90;999.90;;;10.10;99.00;;;;;;4976418;28;20091;-94
2021/05/02 10:27:12;;;;;;;1999.90;999.90;;;10.30;98.80;;;;;;4973926;28;20054;-93
2021/05/02 10:29:42;;;;;;;1999.90;999.90;;;10.20;98.30;;;;;;4976520;28;20054;-93
2021/05/02 10:32:11;;;;;;;1999.90;999.90;;;10.30;98.20;;;;;;4967745;28;20105;-94
2021/05/02 10:34:40;;;;;;;1999.90;999.90;;;10.40;97.50;;;;;;4976070;28;20141;-94
2021/05/02 10:37:34;;;;;;;1999.90;999.90;;;10.30;97.00;;;;;;4961773;28;20079;-94
2021/05/02 10:40:08;;;;;;;1999.90;999.90;;;10.50;95.30;;;;;;4956615;29;20055;-93
2021/05/02 10:42:49;;;;;;;1999.90;999.90;;;10.50;95.50;;;;;;4974449;28;20066;-92
2021/05/02 10:45:37;;;;;;;1999.90;999.90;;;10.70;95.80;;;;;;4963952;28;20051;-93
2021/05/02 10:48:10;;;;;;;1999.90;999.90;;;10.80;95.50;;;;;;4970243;28;20063;-93
2021/05/02 10:50:42;;;;;;;1999.90;999.90;;;10.90;95.20;;;;;;4973402;28;20142;-93
2021/05/02 10:53:13;;;;;;;1999.90;999.90;;;11.00;95.10;;;;;;4965226;28;20110;-93
2021/05/02 10:55:51;;;;;;;1999.90;999.90;;;11.20;94.30;;;;;;4966181;28;20051;-96
2021/05/02 10:58:23;;;;;;;1999.90;999.90;;;11.40;94.50;;;;;;4976001;28;20054;-96
2021/05/02 11:00:56;;;;;;;1999.90;999.90;;;11.50;94.40;;;;;;4974425;28;20059;-96
2021/05/02 11:03:52;;;;;;;1999.90;999.90;;;11.70;94.80;;;;;;4975715;28;20131;-94
2021/05/02 11:06:50;;;;;;;1999.90;999.90;;;11.70;95.40;;;;;;4962898;28;20058;-94
2021/05/02 11:09:20;;;;;;;1999.90;999.90;;;11.60;95.00;;;;;;4965302;28;20125;-95
2021/05/02 11:11:56;;;;;;;1999.90;999.90;;;11.60;95.00;;;;;;4975404;28;20047;-95
2021/05/02 11:14:44;;;;;;;1999.90;999.90;;;11.60;94.70;;;;;;4975608;28;20102;-94
2021/05/02 11:17:31;;;;;;;1999.90;999.90;;;11.50;93.70;;;;;;4966287;28;20059;-94
2021/05/02 11:20:00;;;;;;;1999.90;999.90;;;11.30;93.80;;;;;;4965961;28;20051;-95
2021/05/02 11:22:29;;;;;;;1999.90;999.90;;;11.10;93.50;;;;;;4973881;28;20057;-95
2021/05/02 11:25:01;;;;;;;1999.90;999.90;;;11.20;94.80;;;;;;4975537;28;20070;-96
2021/05/02 11:30:47;;;;;;;1999.90;999.90;;;11.60;94.90;;;;;;4956960;29;20043;-94
2021/05/02 11:33:23;;;;;;;1999.90;999.90;;;11.60;92.50;;;;;;4956484;29;20051;-95
2021/05/02 11:35:57;;;;;;;1999.90;999.90;;;11.60;91.70;;;;;;4956023;29;20178;-95
2021/05/02 11:38:48;;;;;;;1999.90;999.90;;;11.50;92.20;;;;;;4974471;28;20051;-95
2021/05/02 11:41:16;;;;;;;1999.90;999.90;;;11.40;93.40;;;;;;4975335;28;20051;-95
2021/05/02 11:43:44;;;;;;;1999.90;999.90;;;11.50;94.30;;;;;;4975649;28;20051;-95
2021/05/02 11:46:17;;;;;;;1999.90;999.90;;;11.60;95.60;;;;;;4975870;28;20109;-95
2021/05/02 11:48:47;;;;;;;1999.90;999.90;;;11.60;94.50;;;;;;4969649;28;20112;-95
2021/05/02 11:51:24;;;;;;;1999.90;999.90;;;11.60;95.50;;;;;;4955924;29;20094;-95
2021/05/02 11:53:53;;;;;;;1999.90;999.90;;;11.60;95.30;;;;;;4956356;29;20075;-95
2021/05/02 11:56:24;;;;;;;1999.90;999.90;;;11.60;95.20;;;;;;4955835;29;20051;-94
2021/05/02 11:58:55;;;;;;;1999.90;999.90;;;11.60;94.70;;;;;;4956201;29;20051;-95
2021/05/02 12:01:27;;;;;;;1999.90;999.90;;;11.70;93.30;;;;;;4967718;28;20082;-95
2021/05/02 12:04:03;;;;;;;1999.90;999.90;;;11.60;93.50;;;;;;4984259;28;20046;-95
2021/05/02 12:06:32;;;;;;;1999.90;999.90;;;11.60;93.50;;;;;;4997382;28;20070;-95
2021/05/02 12:09:01;;;;;;;1999.90;999.90;;;11.50;93.20;;;;;;4999075;28;20054;-95
2021/05/02 12:11:31;;;;;;;1999.90;999.90;;;11.40;93.80;;;;;;4993176;28;20044;-95
2021/05/02 12:13:59;;;;;;;1999.90;999.90;;;11.40;94.40;;;;;;4980468;28;20099;-94
2021/05/02 12:16:28;;;;;;;1999.90;999.90;;;11.40;94.00;;;;;;4987968;28;20030;-95
2021/05/02 12:19:02;;;;;;;1999.90;999.90;;;11.60;94.50;;;;;;4995946;28;20106;-96
2021/05/02 12:21:35;;;;;;;1999.90;999.90;;;11.70;94.10;;;;;;4999242;28;20047;-95
2021/05/02 12:24:11;;;;;;;1999.90;999.90;;;11.80;92.80;;;;;;4985598;28;20413;-94
2021/05/02 12:26:43;;;;;;;1999.90;999.90;;;11.80;93.40;;;;;;4984992;28;20090;-96
2021/05/02 12:29:13;;;;;;;1999.90;999.90;;;11.70;91.50;;;;;;4981000;28;20055;-95
2021/05/02 12:31:50;;;;;;;1999.90;999.90;;;11.60;92.60;;;;;;4966333;28;20046;-94
2021/05/02 12:34:17;;;;;;;1999.90;999.90;;;11.50;92.80;;;;;;4977520;28;20077;-94
2021/05/02 12:36:44;;;;;;;1999.90;999.90;;;11.60;92.90;;;;;;4975042;28;20090;-94
2021/05/02 12:39:13;;;;;;;1999.90;999.90;;;11.80;92.40;;;;;;4968071;28;20051;-94
2021/05/02 12:41:42;;;;;;;1999.90;999.90;;;11.90;92.50;;;;;;4975832;28;20105;-94
2021/05/02 12:44:17;;;;;;;1999.90;999.90;;;12.10;91.80;;;;;;4977766;28;20047;-95
2021/05/02 12:46:46;;;;;;;1999.90;999.90;;;12.00;92.00;;;;;;4978045;28;20059;-94
2021/05/02 12:49:17;;;;;;;1999.90;999.90;;;11.80;91.60;;;;;;4977861;28;20517;-94
2021/05/02 12:51:46;;;;;;;1999.90;999.90;;;11.60;92.10;;;;;;4976355;28;20164;-95
2021/05/02 12:54:15;;;;;;;1999.90;999.90;;;11.60;92.10;;;;;;4976976;28;20054;-94
2021/05/02 12:56:44;;;;;;;1999.90;999.90;;;11.70;91.30;;;;;;4975804;28;20070;-95
2021/05/02 12:59:35;;;;;;;1999.90;999.90;;;11.60;91.00;;;;;;4977313;28;20100;-93
2021/05/02 13:02:09;;;;;;;1999.90;999.90;;;11.90;92.30;;;;;;4973963;28;20061;-95
2021/05/02 13:04:45;;;;;;;1999.90;999.90;;;12.00;91.60;;;;;;4960524;28;20086;-94
2021/05/02 13:07:13;;;;;;;1999.90;999.90;;;12.30;92.40;;;;;;4972377;28;20485;-95
2021/05/02 13:09:42;;;;;;;1999.90;999.90;;;12.30;91.00;;;;;;4977465;28;20145;-94
2021/05/02 13:12:11;;;;;;;1999.90;999.90;;;12.20;90.90;;;;;;4964891;28;20533;-94
2021/05/02 13:15:03;;;;;;;1999.90;999.90;;;12.40;92.20;;;;;;4958247;29;20168;-94
2021/05/02 13:20:54;;;;;;;1999.90;999.90;;;12.70;90.70;;;;;;4976668;28;20046;-95
2021/05/02 13:23:33;;;;;;;1999.90;999.90;;;13.00;91.10;;;;;;4970982;28;20109;-95
2021/05/02 13:26:21;;;;;;;1999.90;999.90;;;13.10;88.50;;;;;;4974671;28;20054;-95
2021/05/02 13:29:31;;;;;;;1999.90;999.90;;;13.10;87.50;;;;;;4957710;29;20513;-95
2021/05/02 13:32:01;;;;;;;1999.90;999.90;;;13.00;87.70;;;;;;4971481;28;20054;-94
2021/05/02 13:34:30;;;;;;;1999.90;999.90;;;13.10;89.20;;;;;;4965432;28;20086;-95
2021/05/02 13:36:59;;;;;;;1999.90;999.90;;;13.20;90.30;;;;;;4971060;28;20073;-94
2021/05/02 13:39:28;;;;;;;1999.90;999.90;;;13.20;90.00;;;;;;4966731;28;20050;-94
2021/05/02 13:41:59;;;;;;;1999.90;999.90;;;12.80;89.30;;;;;;4965521;28;20047;-94
2021/05/02 13:44:27;;;;;;;1999.90;999.90;;;12.30;89.90;;;;;;4969669;28;20457;-94
2021/05/02 13:46:56;;;;;;;1999.90;999.90;;;12.00;91.00;;;;;;4968918;28;20050;-94
2021/05/02 13:49:24;;;;;;;1999.90;999.90;;;12.00;90.80;;;;;;4977558;28;20051;-92
2021/05/02 13:51:56;;;;;;;1999.90;999.90;;;11.80;90.60;;;;;;4961152;28;20058;-93
2021/05/02 13:54:23;;;;;;;1999.90;999.90;;;11.70;90.00;;;;;;4957586;28;20074;-94
2021/05/02 13:56:55;;;;;;;1999.90;999.90;;;11.60;91.00;;;;;;4957594;29;20357;-94
2021/05/02 13:59:23;;;;;;;1999.90;999.90;;;11.60;91.30;;;;;;4964310;28;20050;-93
2021/05/02 14:01:50;;;;;;;1999.90;999.90;;;11.50;91.40;;;;;;4976934;28;20106;-94
2021/05/02 14:04:18;;;;;;;1999.90;999.90;;;11.70;93.40;;;;;;4977225;28;20105;-93
2021/05/02 14:06:49;;;;;;;1999.90;999.90;;;12.00;92.60;;;;;;4970463;28;20065;-93
2021/05/02 14:09:17;;;;;;;1999.90;999.90;;;12.20;90.10;;;;;;4957283;29;20055;-94
2021/05/02 14:11:44;;;;;;;1999.90;999.90;;;12.20;88.60;;;;;;4957401;28;20062;-93
2021/05/02 14:14:12;;;;;;;1999.90;999.90;;;12.20;87.30;;;;;;4973480;28;20059;-93
2021/05/02 14:16:39;;;;;;;1999.90;999.90;;;12.20;86.80;;;;;;4970896;28;20054;-93